Time;durP1;ratioP1;P1;durP2;ratioP2;P2;SDS_P1;SDS_P2;PMS_P1;PMS_P2;Temp;Humidity;BMP_temperature;BMP_pressure;BME280_temperature;BME280_humidity;BME280_pressure;Samples;Min_cycle;Max_cycle;Signal;HPM_P1;HPM_P2
2021/07/28 00:02:09;;;;;;;20.05;13.07;;;20.10;99.90;;;;;;5053477;28;21054;-57
2021/07/28 00:04:38;;;;;;;21.60;13.07;;;20.00;99.90;;;;;;5047693;28;20388;-57
2021/07/28 00:07:10;;;;;;;20.52;13.98;;;20.00;99.90;;;;;;5050055;28;20383;-57
2021/07/28 00:09:36;;;;;;;21.08;12.93;;;20.10;99.90;;;;;;5061904;28;20382;-58
2021/07/28 00:12:03;;;;;;;19.48;12.85;;;20.00;99.90;;;;;;5059439;28;20937;-57
2021/07/28 00:14:31;;;;;;;21.15;13.50;;;19.90;99.90;;;;;;5051100;28;20422;-57
2021/07/28 00:16:57;;;;;;;19.13;13.23;;;19.90;99.90;;;;;;5056558;28;20404;-57
2021/07/28 00:19:29;;;;;;;20.60;13.07;;;20.00;99.90;;;;;;5058656;28;20479;-57
2021/07/28 00:24:39;;;;;;;22.27;14.57;;;20.10;99.90;;;;;;5043580;28;20410;-57
2021/07/28 00:27:06;;;;;;;21.95;13.45;;;20.20;99.90;;;;;;5060783;28;20379;-58
2021/07/28 00:29:32;;;;;;;21.67;13.68;;;20.20;99.90;;;;;;5070721;28;20376;-57
2021/07/28 00:31:57;;;;;;;20.20;13.23;;;20.20;99.90;;;;;;5070740;28;20714;-57
2021/07/28 00:34:23;;;;;;;20.27;14.13;;;20.20;99.90;;;;;;5064484;28;21028;-57
2021/07/28 00:36:49;;;;;;;21.20;13.63;;;20.20;99.90;;;;;;5039308;28;20382;-57
2021/07/28 00:39:15;;;;;;;22.75;14.40;;;20.00;99.90;;;;;;5043022;28;20669;-58
2021/07/28 00:41:42;;;;;;;22.20;15.30;;;19.90;99.90;;;;;;5041617;28;20383;-57
2021/07/28 00:44:07;;;;;;;24.48;15.60;;;19.90;99.90;;;;;;5030423;28;20844;-57
2021/07/28 00:46:33;;;;;;;22.55;14.98;;;19.90;99.90;;;;;;5031273;28;20402;-57
2021/07/28 00:48:59;;;;;;;23.20;14.03;;;19.80;99.90;;;;;;5029083;28;20445;-56
2021/07/28 00:51:25;;;;;;;22.20;14.70;;;19.80;99.90;;;;;;5029645;28;20406;-58
2021/07/28 00:53:51;;;;;;;21.42;14.80;;;19.80;99.90;;;;;;5030483;28;20407;-57
2021/07/28 00:56:18;;;;;;;21.40;14.00;;;19.80;99.90;;;;;;5030037;28;20626;-58
2021/07/28 00:58:44;;;;;;;23.47;15.20;;;19.90;99.90;;;;;;5030521;28;20431;-57
2021/07/28 01:01:10;;;;;;;21.85;14.50;;;19.80;99.90;;;;;;5030611;28;20379;-57
2021/07/28 01:03:37;;;;;;;22.33;13.90;;;20.00;99.90;;;;;;5031155;28;20850;-57
2021/07/28 01:06:03;;;;;;;22.42;14.85;;;19.80;99.90;;;;;;5029905;28;20456;-57
2021/07/28 01:08:29;;;;;;;22.17;14.50;;;19.70;99.90;;;;;;5030067;28;20383;-57
2021/07/28 01:11:00;;;;;;;23.33;14.55;;;19.70;99.90;;;;;;5030182;28;20489;-57
2021/07/28 01:13:29;;;;;;;20.83;13.40;;;19.60;99.90;;;;;;5030368;28;20445;-58
2021/07/28 01:16:10;;;;;;;21.15;13.63;;;19.70;99.90;;;;;;5030148;28;20407;-57
2021/07/28 01:18:36;;;;;;;25.38;15.10;;;19.60;99.90;;;;;;5030041;28;20879;-57
2021/07/28 01:21:05;;;;;;;27.17;15.73;;;19.60;99.90;;;;;;5029584;28;20431;-57
2021/07/28 01:23:31;;;;;;;25.52;15.52;;;19.60;99.90;;;;;;5030472;28;20941;-57
2021/07/28 01:26:00;;;;;;;25.52;16.48;;;19.60;99.90;;;;;;5029911;28;20425;-57
2021/07/28 01:28:27;;;;;;;26.25;16.15;;;19.60;99.90;;;;;;5030318;28;20830;-58
2021/07/28 01:31:05;;;;;;;26.97;15.90;;;19.60;99.90;;;;;;5029993;28;20462;-58
2021/07/28 01:33:42;;;;;;;23.75;15.60;;;19.50;99.90;;;;;;5029864;28;20960;-58
2021/07/28 01:36:12;;;;;;;26.90;14.95;;;19.60;99.90;;;;;;5028949;28;20750;-58
2021/07/28 01:38:38;;;;;;;27.23;16.57;;;19.70;99.90;;;;;;5030011;28;20379;-58
2021/07/28 01:41:05;;;;;;;25.55;15.80;;;19.70;99.90;;;;;;5028836;28;20389;-58
2021/07/28 01:43:32;;;;;;;27.42;15.90;;;19.60;99.90;;;;;;5029760;28;20421;-58
2021/07/28 01:45:59;;;;;;;24.63;15.48;;;19.60;99.90;;;;;;5029282;28;20433;-56
2021/07/28 01:48:26;;;;;;;26.63;14.80;;;19.60;99.90;;;;;;5029422;28;20395;-59
2021/07/28 01:50:54;;;;;;;27.75;15.05;;;19.60;99.90;;;;;;5029483;28;20390;-58
2021/07/28 01:53:20;;;;;;;25.02;14.63;;;20.40;99.90;;;;;;5028819;28;20501;-57
2021/07/28 01:55:46;;;;;;;26.73;15.43;;;19.60;99.90;;;;;;5029826;28;20403;-58
2021/07/28 01:58:12;;;;;;;25.73;15.03;;;19.60;99.90;;;;;;5028711;28;20719;-57
2021/07/28 02:00:39;;;;;;;23.30;14.23;;;19.60;99.90;;;;;;5029280;28;20773;-57
2021/07/28 02:03:05;;;;;;;25.75;14.93;;;19.60;99.90;;;;;;5028720;28;20395;-57
2021/07/28 02:05:38;;;;;;;25.13;14.15;;;19.50;99.90;;;;;;5029546;28;20434;-57
2021/07/28 02:08:07;;;;;;;18.95;11.45;;;19.50;99.90;;;;;;5029000;28;20376;-57
2021/07/28 02:10:42;;;;;;;15.75;11.43;;;19.30;99.90;;;;;;5029568;28;20920;-57
2021/07/28 02:13:08;;;;;;;17.30;10.80;;;19.30;99.90;;;;;;5028642;28;20845;-57
2021/07/28 02:15:35;;;;;;;16.73;10.65;;;19.50;99.90;;;;;;5028925;28;20465;-57
2021/07/28 02:18:02;;;;;;;15.98;10.32;;;19.50;99.90;;;;;;5028742;28;20391;-56
2021/07/28 02:20:28;;;;;;;17.33;10.55;;;19.40;99.90;;;;;;5029608;28;20875;-57
2021/07/28 02:22:55;;;;;;;16.55;9.95;;;19.40;99.90;;;;;;5029495;28;20466;-57
2021/07/28 02:25:21;;;;;;;15.75;10.80;;;19.50;99.90;;;;;;5028628;28;20541;-57
2021/07/28 02:27:47;;;;;;;17.03;9.70;;;19.50;99.90;;;;;;5029710;28;20470;-57
2021/07/28 02:30:16;;;;;;;15.35;9.80;;;19.50;99.90;;;;;;5028544;28;20379;-57
2021/07/28 02:32:42;;;;;;;17.95;10.30;;;19.50;99.90;;;;;;5060831;28;20445;-58
2021/07/28 02:35:08;;;;;;;16.60;10.23;;;19.40;99.90;;;;;;5068512;28;20480;-57
2021/07/28 02:37:35;;;;;;;17.60;10.25;;;19.30;99.90;;;;;;5069317;28;20387;-57
2021/07/28 02:40:02;;;;;;;18.83;10.60;;;19.30;99.90;;;;;;5068844;28;20384;-56
2021/07/28 02:42:28;;;;;;;20.77;10.70;;;19.20;99.90;;;;;;5069200;28;20372;-57
2021/07/28 02:44:53;;;;;;;17.13;10.80;;;19.20;99.90;;;;;;5069021;28;20391;-59
2021/07/28 02:47:19;;;;;;;18.45;11.75;;;19.10;99.90;;;;;;5068547;28;21076;-57
2021/07/28 02:49:45;;;;;;;21.63;12.10;;;18.90;99.90;;;;;;5069273;28;20858;-58
2021/07/28 02:52:10;;;;;;;21.25;11.70;;;18.90;99.90;;;;;;5068173;28;20375;-57
2021/07/28 02:54:36;;;;;;;19.88;11.88;;;18.90;99.90;;;;;;5072737;28;20768;-57
2021/07/28 02:57:02;;;;;;;18.60;11.90;;;18.90;99.90;;;;;;5072203;28;20445;-56
2021/07/28 02:59:27;;;;;;;19.15;12.40;;;18.70;99.90;;;;;;5072279;28;20388;-57
2021/07/28 03:01:53;;;;;;;23.52;12.30;;;18.60;99.90;;;;;;5072536;28;20441;-57
2021/07/28 03:04:19;;;;;;;22.13;12.00;;;18.50;99.90;;;;;;5071914;28;20458;-57
2021/07/28 03:06:46;;;;;;;26.45;11.73;;;18.40;99.90;;;;;;5071390;28;20437;-58
2021/07/28 03:09:12;;;;;;;22.25;12.32;;;18.40;99.90;;;;;;5071698;28;20745;-56
2021/07/28 03:11:40;;;;;;;21.45;11.93;;;18.40;99.90;;;;;;5071182;28;20404;-56
2021/07/28 03:14:06;;;;;;;21.92;11.77;;;18.40;99.90;;;;;;5071396;28;20415;-55
2021/07/28 03:16:32;;;;;;;22.20;12.10;;;18.40;99.90;;;;;;5072213;28;20417;-56
2021/07/28 03:18:58;;;;;;;19.17;12.20;;;18.50;99.90;;;;;;5071216;28;20737;-56
2021/07/28 03:21:24;;;;;;;19.60;11.73;;;18.50;99.90;;;;;;5070399;28;20418;-56
2021/07/28 03:23:50;;;;;;;18.90;11.10;;;18.50;99.90;;;;;;5071906;28;20849;-56
2021/07/28 03:26:16;;;;;;;15.70;10.80;;;18.50;99.90;;;;;;5071636;28;20371;-56
2021/07/28 03:28:41;;;;;;;21.30;12.60;;;18.50;99.90;;;;;;5072165;28;20386;-56
2021/07/28 03:31:07;;;;;;;18.67;12.23;;;18.50;99.90;;;;;;5070849;28;20479;-56
2021/07/28 03:33:33;;;;;;;20.48;11.70;;;18.40;99.90;;;;;;5071060;28;20913;-56
2021/07/28 03:35:59;;;;;;;18.53;11.60;;;18.40;99.90;;;;;;5071859;28;20434;-56
2021/07/28 03:38:24;;;;;;;21.65;12.48;;;18.40;99.90;;;;;;5070366;28;20399;-56
2021/07/28 03:40:50;;;;;;;19.63;12.07;;;18.20;99.90;;;;;;5071886;28;20390;-57
2021/07/28 03:43:16;;;;;;;21.40;12.00;;;18.20;99.90;;;;;;5070986;28;20812;-56
2021/07/28 03:45:42;;;;;;;19.13;12.20;;;18.30;99.90;;;;;;5071815;28;20866;-56
2021/07/28 03:48:08;;;;;;;23.08;12.25;;;18.40;99.90;;;;;;5071275;28;20387;-56
2021/07/28 03:50:33;;;;;;;20.90;12.70;;;18.30;99.90;;;;;;5071347;28;20388;-56
2021/07/28 03:53:03;;;;;;;24.55;12.57;;;18.40;99.90;;;;;;5064022;28;20933;-56
2021/07/28 03:55:28;;;;;;;21.40;13.00;;;18.30;99.90;;;;;;5051590;28;20414;-56
2021/07/28 03:57:54;;;;;;;22.10;12.90;;;18.30;99.90;;;;;;5051390;28;20439;-56
2021/07/28 04:00:20;;;;;;;23.77;12.47;;;18.30;99.90;;;;;;5053692;28;20418;-56
2021/07/28 04:02:46;;;;;;;18.60;11.90;;;18.40;99.90;;;;;;5056948;28;20476;-56
2021/07/28 04:05:12;;;;;;;20.20;12.60;;;18.30;99.90;;;;;;5050228;28;20409;-56
2021/07/28 04:07:38;;;;;;;21.17;11.32;;;18.20;99.90;;;;;;5051482;28;20394;-56
2021/07/28 04:10:04;;;;;;;20.23;12.20;;;18.30;99.90;;;;;;5047673;28;20473;-55
2021/07/28 04:12:30;;;;;;;19.85;11.65;;;18.30;99.90;;;;;;5038217;28;20546;-56
2021/07/28 04:14:55;;;;;;;21.35;12.20;;;18.30;99.90;;;;;;5030737;28;20494;-55
2021/07/28 04:17:21;;;;;;;19.73;11.97;;;18.30;99.90;;;;;;5029954;28;20395;-56
2021/07/28 04:19:50;;;;;;;19.60;12.60;;;18.30;99.90;;;;;;5030684;28;20390;-56
2021/07/28 04:22:17;;;;;;;20.30;12.82;;;18.30;99.90;;;;;;5029861;28;20436;-55
2021/07/28 04:24:43;;;;;;;22.77;13.40;;;18.40;99.90;;;;;;5030974;28;20494;-56
2021/07/28 04:27:08;;;;;;;21.27;12.90;;;18.50;99.90;;;;;;5030056;28;20471;-56
2021/07/28 04:29:34;;;;;;;24.40;12.90;;;18.70;99.90;;;;;;5039392;28;20767;-57
2021/07/28 04:32:02;;;;;;;21.58;14.63;;;18.80;99.90;;;;;;5031193;28;20406;-56
2021/07/28 04:34:28;;;;;;;22.02;14.23;;;18.90;99.90;;;;;;5030282;28;20422;-56
2021/07/28 04:36:54;;;;;;;24.53;14.47;;;18.80;99.90;;;;;;5030937;28;20731;-55
2021/07/28 04:39:19;;;;;;;23.20;15.17;;;18.80;99.90;;;;;;5032020;28;20429;-56
2021/07/28 04:41:45;;;;;;;21.80;13.13;;;18.90;99.90;;;;;;5036560;28;20386;-55
2021/07/28 04:44:11;;;;;;;23.00;13.73;;;18.90;99.90;;;;;;5038627;28;20484;-56
2021/07/28 04:46:36;;;;;;;22.17;14.30;;;19.00;99.90;;;;;;5029915;28;20388;-55
2021/07/28 04:49:02;;;;;;;21.37;14.10;;;19.10;99.90;;;;;;5029212;28;20406;-55
2021/07/28 04:51:28;;;;;;;25.10;12.75;;;19.20;99.90;;;;;;5031474;28;20424;-55
2021/07/28 04:53:53;;;;;;;19.23;12.57;;;19.30;99.90;;;;;;5040825;28;20401;-56
2021/07/28 04:56:19;;;;;;;20.47;13.00;;;19.30;99.90;;;;;;5061078;28;20415;-56
2021/07/28 04:58:45;;;;;;;22.13;12.57;;;19.40;99.90;;;;;;5033826;28;20493;-56
2021/07/28 05:01:11;;;;;;;18.60;12.57;;;19.40;99.90;;;;;;5031836;28;20727;-56
2021/07/28 05:03:36;;;;;;;19.45;12.52;;;19.50;99.90;;;;;;5028924;28;20426;-55
2021/07/28 05:06:02;;;;;;;20.90;12.40;;;19.60;99.90;;;;;;5030396;28;20390;-55
2021/07/28 05:08:27;;;;;;;19.60;12.77;;;19.70;99.90;;;;;;5030171;28;20433;-56
2021/07/28 05:10:53;;;;;;;23.55;13.18;;;19.80;99.90;;;;;;5047043;28;20401;-56
2021/07/28 05:13:19;;;;;;;20.58;12.93;;;19.90;99.90;;;;;;5044962;28;20772;-55
2021/07/28 05:15:47;;;;;;;26.88;14.15;;;19.90;99.90;;;;;;5036427;28;20804;-55
2021/07/28 05:18:13;;;;;;;20.95;13.40;;;19.80;99.90;;;;;;5056879;28;20447;-55
2021/07/28 05:20:39;;;;;;;21.43;13.20;;;19.70;99.90;;;;;;5050147;28;20498;-56
2021/07/28 05:23:04;;;;;;;23.27;12.93;;;19.00;99.90;;;;;;5048518;28;20401;-55
2021/07/28 05:25:30;;;;;;;20.40;11.75;;;19.80;99.90;;;;;;5039282;28;20824;-56
2021/07/28 05:27:56;;;;;;;19.85;10.52;;;19.90;99.90;;;;;;5048086;28;20385;-56
2021/07/28 05:30:22;;;;;;;19.83;11.07;;;20.00;99.90;;;;;;5056317;28;20389;-56
2021/07/28 05:32:48;;;;;;;16.60;9.57;;;19.90;99.90;;;;;;5049714;28;20458;-55
2021/07/28 05:35:13;;;;;;;17.23;10.63;;;19.90;99.90;;;;;;5048099;28;20412;-56
2021/07/28 05:37:39;;;;;;;18.77;9.98;;;19.90;99.90;;;;;;5048097;28;20928;-56
2021/07/28 05:40:05;;;;;;;18.08;10.30;;;19.90;99.90;;;;;;5062238;28;20522;-55
2021/07/28 05:42:31;;;;;;;21.35;9.73;;;19.80;99.90;;;;;;5053672;28;20389;-56
2021/07/28 05:44:57;;;;;;;15.35;9.43;;;19.90;99.90;;;;;;5049461;28;20385;-57
2021/07/28 05:47:22;;;;;;;14.57;9.10;;;19.80;99.90;;;;;;5049826;28;20383;-56
2021/07/28 05:49:48;;;;;;;15.77;9.50;;;19.90;99.90;;;;;;5051598;28;20396;-56
2021/07/28 05:52:14;;;;;;;16.95;9.30;;;20.00;99.90;;;;;;5042341;28;20408;-56
2021/07/28 05:54:40;;;;;;;17.02;8.35;;;20.00;99.90;;;;;;5048527;28;20421;-56
2021/07/28 05:57:05;;;;;;;15.20;8.70;;;20.10;99.90;;;;;;5048287;28;20527;-55
2021/07/28 05:59:31;;;;;;;17.83;9.50;;;20.10;99.90;;;;;;5048710;28;20377;-56
2021/07/28 06:01:57;;;;;;;15.07;8.75;;;20.10;99.90;;;;;;5048833;28;20451;-56
2021/07/28 06:04:22;;;;;;;15.13;8.70;;;20.10;99.90;;;;;;5048362;28;20415;-56
2021/07/28 06:06:48;;;;;;;17.87;8.83;;;20.20;99.90;;;;;;5048674;28;20373;-56
2021/07/28 06:09:13;;;;;;;14.40;9.40;;;20.30;99.90;;;;;;5048186;28;20390;-56
2021/07/28 06:11:39;;;;;;;13.83;8.40;;;20.50;99.90;;;;;;5048523;28;20389;-56
2021/07/28 06:14:06;;;;;;;12.30;8.20;;;20.40;99.90;;;;;;5049018;28;20382;-55
2021/07/28 06:16:32;;;;;;;12.40;8.05;;;20.30;99.90;;;;;;5048274;28;20388;-56
2021/07/28 06:19:02;;;;;;;14.32;8.80;;;20.30;99.90;;;;;;5049565;28;20377;-57
2021/07/28 06:21:28;;;;;;;15.18;8.15;;;20.20;99.90;;;;;;5048024;28;20400;-56
2021/07/28 06:23:53;;;;;;;12.47;8.40;;;20.10;99.90;;;;;;5044975;28;20757;-57
2021/07/28 06:26:19;;;;;;;14.53;8.40;;;20.10;99.90;;;;;;5034814;28;20402;-56
2021/07/28 06:28:44;;;;;;;15.48;9.20;;;20.00;99.90;;;;;;5044445;28;20394;-57
2021/07/28 06:31:10;;;;;;;14.93;9.63;;;19.90;99.90;;;;;;5032380;28;20901;-56
2021/07/28 06:33:36;;;;;;;15.83;9.43;;;19.90;99.90;;;;;;5033148;28;20848;-57
2021/07/28 06:36:04;;;;;;;15.37;9.50;;;19.80;99.90;;;;;;5032336;28;20907;-56
2021/07/28 06:38:30;;;;;;;15.13;10.15;;;19.80;99.90;;;;;;5032545;28;20857;-56
2021/07/28 06:40:55;;;;;;;17.87;10.27;;;19.70;99.90;;;;;;5032841;28;20414;-56
2021/07/28 06:43:21;;;;;;;14.82;10.40;;;19.60;99.90;;;;;;5030543;28;20469;-56
2021/07/28 06:45:46;;;;;;;17.90;10.07;;;19.60;99.90;;;;;;5032445;28;20379;-56
2021/07/28 06:48:12;;;;;;;15.10;10.05;;;19.50;99.90;;;;;;5031566;28;20419;-56
2021/07/28 06:50:38;;;;;;;15.10;9.53;;;19.60;99.90;;;;;;5038206;28;20403;-56
2021/07/28 06:53:03;;;;;;;15.73;9.90;;;19.60;99.90;;;;;;5043723;28;20406;-55
2021/07/28 06:55:29;;;;;;;17.55;10.07;;;19.50;99.90;;;;;;5037627;28;20788;-56
2021/07/28 06:57:55;;;;;;;15.80;9.73;;;19.50;99.90;;;;;;5032770;28;20726;-56
2021/07/28 07:00:21;;;;;;;15.80;10.07;;;19.50;99.90;;;;;;5047061;28;20412;-56
2021/07/28 07:02:47;;;;;;;15.75;10.00;;;19.60;99.90;;;;;;5052339;28;20385;-56
2021/07/28 07:05:12;;;;;;;15.87;10.13;;;19.70;99.90;;;;;;5051086;28;20480;-56
2021/07/28 07:07:38;;;;;;;15.07;9.47;;;19.70;99.90;;;;;;5050934;28;20859;-56
2021/07/28 07:10:08;;;;;;;12.70;9.40;;;19.70;99.90;;;;;;5052242;28;20374;-56
2021/07/28 07:12:35;;;;;;;15.82;9.52;;;19.70;99.90;;;;;;5050672;28;20446;-56
2021/07/28 07:15:00;;;;;;;20.50;10.00;;;19.90;99.90;;;;;;5052104;28;20416;-56
2021/07/28 07:17:26;;;;;;;13.30;8.60;;;20.00;99.90;;;;;;5050853;28;20381;-56
2021/07/28 07:19:51;;;;;;;13.65;8.85;;;20.00;99.90;;;;;;5052186;28;20378;-56
2021/07/28 07:22:17;;;;;;;13.38;8.73;;;20.20;99.90;;;;;;5050045;28;20385;-56
2021/07/28 07:24:43;;;;;;;16.15;9.00;;;20.30;99.90;;;;;;5051515;28;20424;-57
2021/07/28 07:27:09;;;;;;;13.97;8.70;;;20.20;99.90;;;;;;5050471;28;20883;-56
2021/07/28 07:29:35;;;;;;;13.68;8.68;;;20.10;99.90;;;;;;5051834;28;20377;-56
2021/07/28 07:32:02;;;;;;;11.37;7.10;;;20.00;99.90;;;;;;5051611;28;20381;-57
2021/07/28 07:34:28;;;;;;;14.77;7.95;;;19.90;99.90;;;;;;5050603;28;20417;-56
2021/07/28 07:36:54;;;;;;;11.10;7.60;;;20.00;99.90;;;;;;5050283;28;20439;-57
2021/07/28 07:39:19;;;;;;;14.48;8.13;;;20.00;99.90;;;;;;5049774;28;20389;-56
2021/07/28 07:41:45;;;;;;;15.25;7.60;;;20.10;99.90;;;;;;5051321;28;20460;-56
2021/07/28 07:44:11;;;;;;;12.05;7.30;;;20.30;99.90;;;;;;5051058;28;20382;-56
2021/07/28 07:46:36;;;;;;;13.53;8.00;;;20.40;99.90;;;;;;5051627;28;20400;-56
2021/07/28 07:49:02;;;;;;;12.00;7.57;;;20.60;99.90;;;;;;5051658;28;20431;-56
2021/07/28 07:51:30;;;;;;;11.67;7.60;;;20.50;99.90;;;;;;5050481;28;20528;-56
2021/07/28 07:53:56;;;;;;;16.88;8.45;;;20.40;99.90;;;;;;5045805;28;20504;-56
2021/07/28 07:56:22;;;;;;;12.52;7.80;;;20.50;99.90;;;;;;5036706;28;20464;-56
2021/07/28 07:58:47;;;;;;;12.40;7.60;;;20.40;99.90;;;;;;5038505;28;20960;-56
2021/07/28 08:01:13;;;;;;;12.53;7.20;;;20.50;99.90;;;;;;5050194;28;20376;-56
2021/07/28 08:03:40;;;;;;;10.93;7.20;;;20.50;99.90;;;;;;5051052;28;20859;-56
2021/07/28 08:06:07;;;;;;;10.82;7.03;;;20.40;99.90;;;;;;5050985;28;20473;-56
2021/07/28 08:08:33;;;;;;;11.93;7.30;;;20.30;99.90;;;;;;5050241;28;20572;-55
2021/07/28 08:11:00;;;;;;;10.87;6.47;;;20.40;99.90;;;;;;5050711;28;20381;-55
2021/07/28 08:13:27;;;;;;;16.17;7.13;;;20.40;99.90;;;;;;5050102;28;20443;-56
2021/07/28 08:15:53;;;;;;;14.05;7.15;;;20.50;99.90;;;;;;5050454;28;20406;-55
2021/07/28 08:18:19;;;;;;;13.18;6.80;;;20.60;99.90;;;;;;5049704;28;20447;-55
2021/07/28 08:20:45;;;;;;;10.48;6.40;;;20.40;99.90;;;;;;5050333;28;20386;-55
2021/07/28 08:23:11;;;;;;;12.30;6.88;;;20.20;99.90;;;;;;5049017;28;20400;-55
2021/07/28 08:25:37;;;;;;;14.97;7.00;;;20.10;99.90;;;;;;5050280;28;20442;-55
2021/07/28 08:28:03;;;;;;;12.98;7.05;;;20.10;99.90;;;;;;5050756;28;20393;-56
2021/07/28 08:30:28;;;;;;;12.13;6.28;;;20.00;99.90;;;;;;5049811;28;20591;-55
2021/07/28 08:32:54;;;;;;;13.00;7.07;;;20.00;99.90;;;;;;5050038;28;20385;-55
2021/07/28 08:35:20;;;;;;;10.30;6.27;;;20.10;99.90;;;;;;5049509;28;20519;-55
2021/07/28 08:37:45;;;;;;;10.65;6.57;;;20.10;99.90;;;;;;5050605;28;20474;-57
2021/07/28 08:40:16;;;;;;;10.40;6.63;;;20.10;99.90;;;;;;5049312;28;20397;-54
2021/07/28 08:42:46;;;;;;;15.52;7.32;;;20.10;99.90;;;;;;5050150;28;20480;-55
2021/07/28 08:45:17;;;;;;;11.88;6.80;;;20.20;99.90;;;;;;5049106;28;20385;-54
2021/07/28 08:47:46;;;;;;;9.85;6.53;;;20.30;99.90;;;;;;5049911;28;20389;-55
2021/07/28 08:50:14;;;;;;;11.65;6.20;;;20.50;99.90;;;;;;5049050;28;20798;-55
2021/07/28 08:52:40;;;;;;;11.60;6.22;;;20.50;99.90;;;;;;5049991;28;20393;-56
2021/07/28 08:55:07;;;;;;;10.90;6.10;;;20.50;99.90;;;;;;5049459;28;20400;-56
2021/07/28 08:57:34;;;;;;;10.10;5.73;;;20.40;99.90;;;;;;5049427;28;20388;-56
2021/07/28 09:00:00;;;;;;;11.35;6.35;;;20.40;99.90;;;;;;5048652;28;20390;-56
2021/07/28 09:02:27;;;;;;;9.80;5.80;;;20.30;99.90;;;;;;5047563;28;20741;-56
2021/07/28 09:04:53;;;;;;;12.23;6.53;;;20.40;99.90;;;;;;5049579;28;20431;-57
2021/07/28 09:07:25;;;;;;;10.40;5.90;;;20.70;99.90;;;;;;5043283;28;20426;-56
2021/07/28 09:09:56;;;;;;;9.95;5.80;;;20.90;99.90;;;;;;5043013;28;20902;-56
2021/07/28 09:12:35;;;;;;;10.88;6.40;;;21.00;99.90;;;;;;5052611;28;20956;-56
2021/07/28 09:15:03;;;;;;;11.95;5.63;;;21.20;99.90;;;;;;5057818;28;20404;-56
2021/07/28 09:17:30;;;;;;;11.00;6.10;;;21.50;99.90;;;;;;5057822;28;20387;-56
2021/07/28 09:19:58;;;;;;;9.95;5.90;;;21.80;99.90;;;;;;5069552;28;20458;-56
2021/07/28 09:22:30;;;;;;;10.13;6.40;;;22.40;99.90;;;;;;5039438;28;20441;-57
2021/07/28 09:25:14;;;;;;;8.82;5.15;;;23.20;99.90;;;;;;5055662;28;20398;-57
2021/07/28 09:27:51;;;;;;;9.10;5.17;;;23.90;99.90;;;;;;5051761;28;20400;-56
2021/07/28 09:30:29;;;;;;;9.82;5.30;;;24.40;99.90;;;;;;5041034;28;20459;-56
2021/07/28 09:33:07;;;;;;;9.33;5.20;;;24.50;99.90;;;;;;5050298;28;20396;-56
2021/07/28 09:35:50;;;;;;;15.82;5.18;;;24.40;99.90;;;;;;5047068;28;20905;-57
2021/07/28 09:38:30;;;;;;;11.20;5.60;;;24.90;99.90;;;;;;5046023;28;20405;-56
2021/07/28 09:41:20;;;;;;;11.00;5.40;;;25.10;99.90;;;;;;5041577;28;20888;-57
2021/07/28 09:44:02;;;;;;;9.43;5.43;;;25.30;99.90;;;;;;5067886;28;20407;-56
2021/07/28 09:46:35;;;;;;;12.00;5.70;;;25.00;99.90;;;;;;5067349;28;20746;-55
2021/07/28 09:49:06;;;;;;;9.20;4.37;;;25.20;99.90;;;;;;5068994;28;20498;-54
2021/07/28 09:51:36;;;;;;;8.70;5.05;;;24.90;99.90;;;;;;5068077;28;20384;-54
2021/07/28 09:54:02;;;;;;;13.00;5.43;;;24.90;99.90;;;;;;5068466;28;20754;-54
2021/07/28 09:56:36;;;;;;;9.33;4.80;;;25.00;99.90;;;;;;5067897;28;20419;-54
2021/07/28 09:59:03;;;;;;;9.88;5.75;;;25.10;99.90;;;;;;5063889;28;20468;-55
2021/07/28 10:01:32;;;;;;;9.10;5.27;;;25.30;99.90;;;;;;5047639;28;20435;-54
2021/07/28 10:03:59;;;;;;;10.07;4.93;;;25.30;99.90;;;;;;5048853;28;20389;-54
2021/07/28 10:06:29;;;;;;;9.93;5.00;;;25.60;99.90;;;;;;5048227;28;20414;-54
2021/07/28 10:08:56;;;;;;;261.25;106.60;;;25.40;99.90;;;;;;5048633;28;20464;-55
2021/07/28 10:11:25;;;;;;;16.13;10.48;;;25.00;99.90;;;;;;5047920;28;20377;-55
2021/07/28 10:13:52;;;;;;;32.58;23.65;;;24.80;99.90;;;;;;5048364;28;20468;-56
2021/07/28 10:16:18;;;;;;;10.82;6.53;;;24.80;99.90;;;;;;5047730;28;20397;-55
2021/07/28 10:18:49;;;;;;;9.50;5.35;;;24.80;99.90;;;;;;5049119;28;20381;-56
2021/07/28 10:21:15;;;;;;;10.50;6.00;;;24.80;99.90;;;;;;5047903;28;20859;-55
2021/07/28 10:23:45;;;;;;;10.25;5.55;;;24.50;99.90;;;;;;5048204;28;20425;-55
2021/07/28 10:26:13;;;;;;;10.68;5.50;;;24.50;99.90;;;;;;5047741;28;20388;-55
2021/07/28 10:28:46;;;;;;;8.52;4.65;;;23.90;99.90;;;;;;5048505;28;20385;-55
2021/07/28 10:31:17;;;;;;;9.38;5.40;;;23.50;99.90;;;;;;5047985;28;20381;-55
2021/07/28 10:33:54;;;;;;;10.02;5.53;;;23.20;99.90;;;;;;5048251;28;20385;-55
2021/07/28 10:36:43;;;;;;;12.17;5.57;;;23.20;99.90;;;;;;5047581;28;20867;-55
2021/07/28 10:39:08;;;;;;;10.25;5.50;;;23.50;99.90;;;;;;5047711;28;20409;-56
2021/07/28 10:41:41;;;;;;;8.67;5.00;;;23.70;99.90;;;;;;5047606;28;20755;-56
2021/07/28 10:44:14;;;;;;;10.03;5.17;;;23.70;99.90;;;;;;5048255;28;20378;-60
2021/07/28 10:46:57;;;;;;;8.80;5.30;;;24.50;99.90;;;;;;5048968;28;20393;-57
2021/07/28 10:49:47;;;;;;;9.87;5.33;;;23.40;99.90;;;;;;5041106;28;20753;-58
2021/07/28 10:52:36;;;;;;;10.10;5.60;;;23.40;99.90;;;;;;5034062;28;20543;-57
2021/07/28 10:55:02;;;;;;;12.07;5.30;;;23.30;99.90;;;;;;5034793;28;20428;-56
2021/07/28 10:57:45;;;;;;;10.57;5.60;;;23.60;99.90;;;;;;5031906;28;20753;-55
2021/07/28 11:00:13;;;;;;;9.77;5.43;;;23.80;99.90;;;;;;5033482;28;20436;-55
2021/07/28 11:02:57;;;;;;;10.30;5.00;;;24.60;99.90;;;;;;5028708;28;20461;-56
2021/07/28 11:05:25;;;;;;;12.70;5.45;;;24.70;99.90;;;;;;5039617;28;20511;-55
2021/07/28 11:08:05;;;;;;;11.23;5.00;;;24.30;99.90;;;;;;5040433;28;20909;-56
2021/07/28 11:10:35;;;;;;;9.75;5.10;;;24.10;99.90;;;;;;5033971;28;20553;-56
2021/07/28 11:13:09;;;;;;;8.85;4.95;;;24.70;99.90;;;;;;5052314;28;20413;-56
2021/07/28 11:15:36;;;;;;;9.25;5.10;;;24.70;99.90;;;;;;5046925;28;20439;-56
2021/07/28 11:18:02;;;;;;;8.27;4.40;;;24.70;99.90;;;;;;5043578;28;20428;-56
2021/07/28 11:20:30;;;;;;;9.68;4.80;;;24.60;99.90;;;;;;5043757;28;20399;-55
2021/07/28 11:23:34;;;;;;;8.88;4.60;;;24.70;99.90;;;;;;5033288;28;20409;-56
2021/07/28 11:26:01;;;;;;;9.65;4.80;;;24.90;99.90;;;;;;5023355;28;20417;-57
2021/07/28 11:28:27;;;;;;;8.13;4.90;;;25.40;99.90;;;;;;5037142;28;20944;-54
2021/07/28 11:31:10;;;;;;;9.95;5.10;;;25.70;99.90;;;;;;5046187;28;20403;-55
2021/07/28 11:33:36;;;;;;;8.23;5.00;;;25.60;99.90;;;;;;5042417;28;20743;-56
2021/07/28 11:36:03;;;;;;;8.10;4.87;;;25.60;99.90;;;;;;5043098;28;20411;-56
2021/07/28 11:38:33;;;;;;;8.55;5.03;;;25.50;99.90;;;;;;5044077;28;20402;-56
2021/07/28 11:41:00;;;;;;;9.40;5.05;;;25.60;99.90;;;;;;5035842;28;20482;-56
2021/07/28 11:43:39;;;;;;;8.50;4.55;;;25.20;99.90;;;;;;5040795;28;20414;-56
2021/07/28 11:46:16;;;;;;;9.30;4.60;;;25.60;99.90;;;;;;5043835;28;20407;-56
2021/07/28 11:48:46;;;;;;;9.88;4.75;;;25.20;99.90;;;;;;5045145;28;20427;-55
2021/07/28 11:51:25;;;;;;;9.18;4.60;;;25.40;99.90;;;;;;5045969;28;20390;-57
2021/07/28 11:53:52;;;;;;;9.40;4.60;;;25.40;99.90;;;;;;5038958;28;20452;-56
2021/07/28 11:56:18;;;;;;;10.63;5.10;;;25.10;99.90;;;;;;5041064;28;20428;-56
2021/07/28 11:58:47;;;;;;;10.65;5.00;;;25.20;99.90;;;;;;5048921;28;20411;-55
2021/07/28 12:01:24;;;;;;;9.40;5.20;;;24.80;99.90;;;;;;5038283;28;20440;-57
2021/07/28 12:03:56;;;;;;;9.00;5.70;;;24.90;99.90;;;;;;5037224;28;20402;-56
2021/07/28 12:06:31;;;;;;;8.68;4.97;;;24.80;99.90;;;;;;5042012;28;20855;-56
2021/07/28 12:09:20;;;;;;;9.00;5.10;;;24.80;99.90;;;;;;5044729;28;20405;-55
2021/07/28 12:12:02;;;;;;;8.95;4.80;;;24.80;99.90;;;;;;5037026;28;20408;-56
2021/07/28 12:14:32;;;;;;;8.93;4.80;;;24.70;99.90;;;;;;5036477;28;20888;-56
2021/07/28 12:16:59;;;;;;;8.50;5.00;;;24.70;99.90;;;;;;5052989;28;20401;-56
2021/07/28 12:19:26;;;;;;;10.07;4.88;;;24.60;99.90;;;;;;5045467;28;21521;-56
2021/07/28 12:22:04;;;;;;;8.57;5.07;;;25.10;99.90;;;;;;5042605;28;20900;-56
2021/07/28 12:24:39;;;;;;;8.18;4.70;;;25.40;99.90;;;;;;5042229;28;20407;-55
2021/07/28 12:27:26;;;;;;;9.20;5.00;;;25.80;99.90;;;;;;5040054;28;20396;-56
2021/07/28 12:30:19;;;;;;;8.73;4.40;;;25.90;99.90;;;;;;5050874;28;20429;-56
2021/07/28 12:32:47;;;;;;;8.77;4.15;;;26.10;99.90;;;;;;5040746;28;20401;-55
2021/07/28 12:35:27;;;;;;;8.20;4.88;;;26.10;99.90;;;;;;5047657;28;20409;-56
2021/07/28 12:38:11;;;;;;;8.20;4.63;;;26.20;99.90;;;;;;5055020;28;20435;-55
2021/07/28 12:40:42;;;;;;;10.60;4.80;;;25.80;99.90;;;;;;5045149;28;20447;-55
2021/07/28 12:43:11;;;;;;;8.57;4.40;;;25.50;99.90;;;;;;5040637;28;20397;-55